Time;durP1;ratioP1;P1;durP2;ratioP2;P2;SDS_P1;SDS_P2;PMS_P1;PMS_P2;Temp;Humidity;BMP_temperature;BMP_pressure;BME280_temperature;BME280_humidity;BME280_pressure;Samples;Min_cycle;Max_cycle;Signal;HPM_P1;HPM_P2
2021/09/30 00:01:00;;;;;;;4.00;2.00;;;9.80;99.90;;;;;;4971402;28;20420;-83
2021/09/30 00:03:25;;;;;;;4.00;1.93;;;9.70;99.90;;;;;;4953683;28;20825;-83
2021/09/30 00:05:51;;;;;;;5.33;1.97;;;9.70;99.90;;;;;;4971462;28;20382;-82
2021/09/30 00:08:17;;;;;;;2.50;1.60;;;9.80;99.90;;;;;;4971417;28;20417;-83
2021/09/30 00:13:45;;;;;;;4.13;1.83;;;9.70;99.90;;;;;;4960342;28;20406;-85
2021/09/30 00:45:47;;;;;;;3.42;2.00;;;9.40;99.90;;;;;;4971553;28;20394;-87
2021/09/30 00:48:43;;;;;;;3.33;2.03;;;9.40;99.90;;;;;;4954034;28;20453;-85
2021/09/30 01:25:06;;;;;;;4.35;2.08;;;9.30;99.90;;;;;;4971276;28;20449;-85
2021/09/30 01:46:08;;;;;;;6.33;2.60;;;9.10;99.90;;;;;;4973781;28;20447;-82
2021/09/30 03:00:28;;;;;;;6.68;2.85;;;9.50;99.90;;;;;;4973141;28;20805;-83
2021/09/30 03:02:56;;;;;;;7.72;2.70;;;9.50;99.90;;;;;;4955013;28;20478;-80
2021/09/30 03:05:23;;;;;;;5.35;2.67;;;9.40;99.90;;;;;;4954858;28;20810;-80
2021/09/30 03:07:52;;;;;;;4.80;2.60;;;9.40;99.90;;;;;;4971982;28;20465;-85
2021/09/30 03:10:20;;;;;;;5.75;2.85;;;9.30;99.90;;;;;;4970645;28;20393;-81
2021/09/30 03:12:48;;;;;;;5.43;2.90;;;9.40;99.90;;;;;;4972344;28;20394;-82
2021/09/30 03:23:14;;;;;;;8.35;3.30;;;9.20;99.90;;;;;;4972486;28;20397;-82
2021/09/30 03:25:46;;;;;;;4.65;2.97;;;9.20;99.90;;;;;;4972141;28;20478;-82
2021/09/30 03:28:13;;;;;;;5.13;3.13;;;9.20;99.90;;;;;;4954051;28;20418;-79
2021/09/30 03:30:38;;;;;;;9.75;2.83;;;9.30;99.90;;;;;;4954440;28;20391;-82
2021/09/30 03:33:07;;;;;;;8.43;2.90;;;9.30;99.90;;;;;;4972143;28;20386;-84
2021/09/30 03:35:33;;;;;;;12.05;3.13;;;9.30;99.90;;;;;;4972208;28;20385;-82
2021/09/30 03:38:00;;;;;;;12.43;3.25;;;9.40;99.90;;;;;;4954014;28;20924;-80
2021/09/30 03:40:26;;;;;;;6.72;2.63;;;9.50;99.90;;;;;;4971966;28;20959;-80
2021/09/30 03:42:52;;;;;;;5.70;2.40;;;9.60;99.90;;;;;;4970610;28;20443;-87
2021/09/30 03:45:17;;;;;;;5.05;2.40;;;9.50;99.90;;;;;;4972082;28;20391;-78
2021/09/30 03:47:43;;;;;;;5.97;2.40;;;9.60;99.90;;;;;;4971519;28;20912;-80
2021/09/30 03:50:15;;;;;;;4.78;2.35;;;9.60;99.90;;;;;;4972316;28;20518;-83
2021/09/30 04:00:29;;;;;;;7.00;2.30;;;9.80;99.90;;;;;;4972809;28;20575;-83
2021/09/30 04:02:54;;;;;;;5.20;2.13;;;9.80;99.90;;;;;;4954205;28;20972;-80
2021/09/30 04:05:20;;;;;;;5.68;2.28;;;9.80;99.90;;;;;;4971091;28;20473;-79
2021/09/30 04:07:45;;;;;;;6.90;2.20;;;9.90;99.90;;;;;;4970940;28;20738;-85
2021/09/30 04:10:11;;;;;;;5.23;2.00;;;9.90;99.90;;;;;;4971010;28;20374;-80
2021/09/30 04:12:37;;;;;;;4.93;2.13;;;9.90;99.90;;;;;;4970973;28;20473;-78
2021/09/30 04:15:03;;;;;;;5.63;1.90;;;9.90;99.90;;;;;;4969787;28;20391;-81
2021/09/30 04:17:29;;;;;;;4.72;2.17;;;9.90;99.90;;;;;;4971073;28;20528;-85
2021/09/30 04:19:55;;;;;;;9.18;2.35;;;9.90;99.90;;;;;;4953678;28;20393;-78
2021/09/30 04:22:20;;;;;;;5.57;2.30;;;9.90;99.90;;;;;;4971041;28;20386;-83
2021/09/30 04:24:47;;;;;;;6.27;2.33;;;9.80;99.90;;;;;;4953899;28;20461;-81
2021/09/30 04:27:13;;;;;;;6.45;2.00;;;9.90;99.90;;;;;;4970825;28;20412;-84
2021/09/30 04:29:38;;;;;;;3.53;1.80;;;9.90;99.90;;;;;;4971064;28;20399;-81
2021/09/30 04:32:05;;;;;;;5.93;2.03;;;9.90;99.90;;;;;;4970809;28;20503;-78
2021/09/30 04:34:31;;;;;;;5.82;2.10;;;10.00;99.90;;;;;;4970936;28;20381;-82
2021/09/30 04:36:56;;;;;;;4.15;2.40;;;10.00;99.90;;;;;;4970267;28;20374;-79
2021/09/30 04:39:22;;;;;;;4.00;1.90;;;9.90;99.90;;;;;;4971063;28;20888;-82
2021/09/30 04:41:48;;;;;;;3.97;2.00;;;10.00;99.90;;;;;;4953764;28;20455;-87
2021/09/30 04:44:14;;;;;;;6.03;1.90;;;10.10;99.90;;;;;;4971653;28;20417;-82
2021/09/30 04:46:40;;;;;;;3.83;1.98;;;10.10;99.90;;;;;;4953436;28;20458;-78
2021/09/30 04:49:06;;;;;;;11.35;2.15;;;10.00;99.90;;;;;;4970844;28;20419;-82
2021/09/30 04:51:32;;;;;;;4.38;1.95;;;10.00;99.90;;;;;;4953178;28;20391;-86
2021/09/30 04:53:58;;;;;;;4.78;1.90;;;10.10;99.90;;;;;;4970741;28;20437;-81
2021/09/30 04:56:23;;;;;;;3.17;1.77;;;10.00;99.90;;;;;;4970930;28;20390;-84
2021/09/30 04:58:49;;;;;;;10.87;2.60;;;10.10;99.90;;;;;;4970701;28;20385;-79
2021/09/30 05:01:15;;;;;;;5.27;2.20;;;10.20;99.90;;;;;;4970654;28;20392;-80
2021/09/30 05:03:41;;;;;;;5.50;2.03;;;10.20;99.90;;;;;;4970314;28;20768;-81
2021/09/30 05:06:07;;;;;;;7.00;2.20;;;10.20;99.90;;;;;;4971818;28;20397;-84
2021/09/30 05:08:34;;;;;;;7.65;2.10;;;10.20;99.90;;;;;;4956919;28;20414;-81
2021/09/30 05:11:01;;;;;;;12.80;2.60;;;10.30;99.90;;;;;;4974717;28;20464;-82
2021/09/30 05:13:36;;;;;;;5.75;1.80;;;10.30;99.90;;;;;;4974193;28;20425;-84
2021/09/30 05:16:03;;;;;;;5.47;1.60;;;10.50;99.90;;;;;;4974858;28;20398;-81
2021/09/30 05:18:29;;;;;;;6.80;2.00;;;10.60;99.90;;;;;;4974154;28;20485;-83
2021/09/30 05:20:55;;;;;;;7.23;2.00;;;10.50;99.90;;;;;;4974113;28;20450;-80
2021/09/30 05:23:21;;;;;;;8.10;2.50;;;10.50;99.90;;;;;;4973714;28;20371;-83
2021/09/30 05:25:47;;;;;;;7.82;2.00;;;10.50;99.90;;;;;;4973280;28;20390;-83
2021/09/30 05:28:13;;;;;;;9.60;2.00;;;10.60;99.90;;;;;;4973802;28;20409;-78
2021/09/30 05:30:38;;;;;;;6.70;2.10;;;10.60;99.90;;;;;;4956724;28;20394;-84
2021/09/30 05:33:04;;;;;;;6.17;2.00;;;10.70;99.90;;;;;;4973483;28;20378;-85
2021/09/30 05:35:30;;;;;;;6.90;1.92;;;10.70;99.90;;;;;;4974267;28;20390;-82
2021/09/30 05:37:56;;;;;;;4.90;2.00;;;10.60;99.90;;;;;;4955872;28;20711;-84
2021/09/30 05:40:23;;;;;;;9.40;2.25;;;10.70;99.90;;;;;;4973972;28;20894;-82
2021/09/30 05:42:49;;;;;;;5.57;2.30;;;10.60;99.90;;;;;;4972656;28;20421;-86
2021/09/30 05:45:16;;;;;;;6.28;2.67;;;10.60;99.90;;;;;;4973635;28;20906;-83
2021/09/30 05:47:43;;;;;;;8.32;2.22;;;10.70;99.90;;;;;;4955952;28;20840;-87
2021/09/30 05:50:10;;;;;;;5.63;2.10;;;10.70;99.90;;;;;;4974113;28;20391;-79
2021/09/30 05:52:35;;;;;;;4.60;1.90;;;10.70;99.90;;;;;;4973660;28;20398;-83
2021/09/30 05:55:03;;;;;;;9.97;2.20;;;10.70;99.90;;;;;;4973490;28;20382;-80
2021/09/30 05:57:30;;;;;;;9.85;2.40;;;10.80;99.90;;;;;;4955563;28;20877;-85
2021/09/30 06:00:03;;;;;;;6.53;2.15;;;10.70;99.90;;;;;;4973568;28;20387;-84
2021/09/30 06:10:51;;;;;;;6.20;2.00;;;10.70;99.90;;;;;;5011819;28;20398;-85
2021/09/30 06:13:26;;;;;;;4.70;1.90;;;10.70;99.90;;;;;;5010961;28;20398;-83
2021/09/30 06:15:51;;;;;;;5.43;1.77;;;10.70;99.90;;;;;;5011500;28;20398;-84
2021/09/30 06:18:17;;;;;;;5.80;1.85;;;10.80;99.90;;;;;;5011264;28;20383;-84
2021/09/30 06:20:50;;;;;;;4.00;1.80;;;10.70;99.90;;;;;;5011431;28;20865;-82
2021/09/30 06:23:16;;;;;;;7.45;2.10;;;10.80;99.90;;;;;;5011476;28;20398;-82
2021/09/30 06:25:44;;;;;;;3.75;2.00;;;10.70;99.90;;;;;;4993626;28;20777;-82
2021/09/30 06:28:09;;;;;;;6.43;1.87;;;10.70;99.90;;;;;;5011740;28;20419;-83
2021/09/30 06:30:35;;;;;;;6.90;2.00;;;10.80;99.90;;;;;;5011761;28;20742;-84
2021/09/30 06:33:01;;;;;;;5.50;2.90;;;10.80;99.90;;;;;;5011404;28;20399;-80
2021/09/30 06:35:26;;;;;;;4.63;2.60;;;10.80;99.90;;;;;;4999355;28;20388;-86
2021/09/30 06:37:52;;;;;;;5.07;2.20;;;10.90;99.90;;;;;;4990063;28;20381;-85
2021/09/30 06:40:18;;;;;;;5.93;2.00;;;10.90;99.90;;;;;;4973777;28;20440;-83
2021/09/30 06:42:43;;;;;;;4.43;2.03;;;10.80;99.90;;;;;;4991741;28;20391;-81
2021/09/30 06:45:09;;;;;;;6.97;2.20;;;10.90;99.90;;;;;;4990979;28;20388;-84
2021/09/30 06:47:37;;;;;;;6.47;1.80;;;10.80;99.90;;;;;;4991240;28;20504;-85
2021/09/30 06:50:07;;;;;;;5.13;2.40;;;10.80;99.90;;;;;;4988916;28;20415;-83
2021/09/30 06:52:33;;;;;;;5.05;1.95;;;10.80;99.90;;;;;;4974000;28;20397;-84
2021/09/30 06:54:59;;;;;;;5.77;2.63;;;10.80;99.90;;;;;;4991890;28;20478;-78
2021/09/30 06:57:28;;;;;;;5.72;2.20;;;10.90;99.90;;;;;;4967648;28;20381;-85
2021/09/30 06:59:56;;;;;;;5.80;2.05;;;11.00;99.90;;;;;;4990433;28;20393;-85
2021/09/30 07:02:23;;;;;;;3.80;2.10;;;10.90;99.90;;;;;;4989669;28;20558;-82
2021/09/30 07:04:49;;;;;;;7.03;2.10;;;11.00;99.90;;;;;;4990345;28;20409;-81
2021/09/30 07:07:14;;;;;;;7.30;2.20;;;10.90;99.90;;;;;;4989965;28;20507;-81
2021/09/30 07:09:40;;;;;;;7.77;2.30;;;11.10;99.90;;;;;;4989069;28;20477;-84
2021/09/30 07:12:05;;;;;;;9.20;2.40;;;11.10;99.90;;;;;;4990352;28;20396;-84
2021/09/30 07:14:31;;;;;;;3.53;1.80;;;11.10;99.90;;;;;;4989229;28;20934;-81
2021/09/30 07:16:57;;;;;;;8.80;2.37;;;11.20;99.90;;;;;;4989809;28;20389;-80
2021/09/30 07:19:23;;;;;;;6.45;2.20;;;11.20;99.90;;;;;;4991017;28;20520;-80
2021/09/30 07:21:48;;;;;;;6.20;2.10;;;11.30;99.90;;;;;;4990207;28;20443;-83
2021/09/30 07:24:14;;;;;;;5.60;2.20;;;11.30;99.90;;;;;;4989231;28;20883;-83
2021/09/30 07:26:40;;;;;;;7.85;3.20;;;11.20;99.90;;;;;;4989140;28;20848;-85
2021/09/30 07:29:06;;;;;;;6.10;1.73;;;11.30;99.90;;;;;;4988435;28;20427;-82
2021/09/30 07:31:32;;;;;;;5.83;2.30;;;11.30;99.90;;;;;;4971711;28;20385;-83
2021/09/30 07:33:57;;;;;;;5.03;2.13;;;11.50;99.90;;;;;;4989261;28;20388;-80
2021/09/30 07:36:23;;;;;;;6.90;2.40;;;11.50;99.90;;;;;;4990443;28;20738;-78
2021/09/30 07:38:50;;;;;;;5.43;2.10;;;11.60;99.90;;;;;;4989664;28;20492;-87
2021/09/30 07:41:15;;;;;;;6.03;2.23;;;11.70;99.90;;;;;;4990174;28;20384;-84
2021/09/30 07:43:41;;;;;;;6.40;2.13;;;11.70;99.90;;;;;;4989088;28;20922;-81
2021/09/30 07:46:07;;;;;;;6.80;2.65;;;11.80;99.90;;;;;;4990359;28;20443;-75
2021/09/30 07:48:32;;;;;;;7.53;2.30;;;11.90;99.90;;;;;;4986995;28;20408;-79
2021/09/30 07:50:58;;;;;;;5.20;2.05;;;12.00;99.90;;;;;;4989087;28;20397;-81
2021/09/30 07:53:23;;;;;;;6.57;2.80;;;12.10;99.90;;;;;;4990656;28;20381;-79
2021/09/30 07:55:49;;;;;;;5.13;2.08;;;12.10;99.90;;;;;;4989476;28;20915;-83
2021/09/30 07:58:15;;;;;;;6.05;2.53;;;12.10;99.90;;;;;;4988971;28;20381;-85
2021/09/30 08:00:42;;;;;;;8.00;2.30;;;12.20;99.90;;;;;;4990389;28;20396;-83
2021/09/30 08:03:08;;;;;;;7.47;2.40;;;12.30;99.90;;;;;;4990387;28;20872;-84
2021/09/30 08:05:35;;;;;;;5.65;2.05;;;12.40;99.90;;;;;;4990617;28;20431;-79
2021/09/30 08:08:09;;;;;;;5.20;2.15;;;12.40;99.90;;;;;;4990103;28;20436;-86
2021/09/30 08:10:36;;;;;;;6.03;2.10;;;12.70;99.90;;;;;;4972734;28;20436;-84
2021/09/30 08:13:02;;;;;;;6.00;2.30;;;12.60;99.90;;;;;;4972578;28;20731;-83
2021/09/30 08:15:30;;;;;;;4.43;2.00;;;12.70;99.90;;;;;;4966876;28;20447;-86
2021/09/30 08:17:56;;;;;;;6.95;2.28;;;12.70;99.90;;;;;;4983796;28;20897;-81
2021/09/30 08:20:22;;;;;;;8.67;2.37;;;12.60;99.90;;;;;;4989727;28;20369;-82
2021/09/30 08:22:48;;;;;;;8.20;2.08;;;12.60;99.90;;;;;;4989741;28;20393;-79
2021/09/30 08:25:14;;;;;;;6.28;2.30;;;12.60;99.90;;;;;;4989593;28;20920;-81
2021/09/30 08:27:39;;;;;;;6.40;2.20;;;12.60;99.90;;;;;;4988779;28;20483;-81
2021/09/30 08:30:06;;;;;;;4.97;2.20;;;12.60;99.90;;;;;;4990066;28;20369;-80
2021/09/30 08:32:31;;;;;;;8.15;2.80;;;12.60;99.90;;;;;;4989658;28;20392;-82
2021/09/30 08:34:57;;;;;;;10.35;2.53;;;12.40;99.90;;;;;;4990441;28;20739;-83
2021/09/30 08:37:22;;;;;;;8.03;2.30;;;12.30;99.90;;;;;;4989466;28;20396;-79
2021/09/30 08:39:48;;;;;;;6.72;2.90;;;12.30;99.90;;;;;;4989005;28;20408;-80
2021/09/30 08:42:14;;;;;;;7.07;2.27;;;12.30;99.90;;;;;;4991420;28;20388;-82
2021/09/30 08:44:39;;;;;;;5.37;2.10;;;12.20;99.90;;;;;;4989147;28;21208;-81
2021/09/30 08:47:05;;;;;;;8.18;2.40;;;12.10;99.90;;;;;;4972556;28;20413;-81
2021/09/30 08:49:32;;;;;;;5.32;2.47;;;12.20;99.90;;;;;;4976508;28;20396;-87
2021/09/30 08:51:58;;;;;;;5.57;2.53;;;12.20;99.90;;;;;;4987415;28;20400;-84
2021/09/30 08:54:24;;;;;;;6.63;2.37;;;12.20;99.90;;;;;;4974473;28;20396;-80
2021/09/30 08:56:50;;;;;;;12.55;3.45;;;12.10;99.90;;;;;;4988422;28;20392;-83
2021/09/30 08:59:27;;;;;;;5.93;2.10;;;12.10;99.90;;;;;;4970982;28;20377;-84
2021/09/30 09:02:05;;;;;;;6.50;2.47;;;12.20;99.90;;;;;;4988408;28;20396;-84
2021/09/30 09:04:32;;;;;;;5.90;2.10;;;12.30;99.90;;;;;;4989460;28;20724;-81
2021/09/30 09:07:09;;;;;;;6.05;2.30;;;12.30;99.90;;;;;;4999131;28;20393;-79
2021/09/30 09:09:35;;;;;;;6.90;2.08;;;12.40;99.90;;;;;;4989252;28;20377;-80
2021/09/30 09:12:08;;;;;;;8.38;2.60;;;12.60;99.90;;;;;;4987180;28;20897;-80
2021/09/30 09:14:38;;;;;;;10.15;2.13;;;13.00;99.90;;;;;;4989416;28;20476;-81
2021/09/30 09:17:12;;;;;;;4.40;2.00;;;13.40;99.90;;;;;;4971982;28;20755;-80
2021/09/30 09:19:43;;;;;;;8.23;1.98;;;13.60;99.90;;;;;;4971689;28;20479;-77
2021/09/30 09:22:19;;;;;;;6.00;2.17;;;13.90;99.90;;;;;;4990947;28;20858;-79
2021/09/30 09:25:03;;;;;;;7.77;2.03;;;14.20;99.90;;;;;;4972808;28;20793;-83
2021/09/30 09:27:51;;;;;;;8.55;2.38;;;14.40;99.90;;;;;;4989847;28;20942;-81
2021/09/30 09:30:32;;;;;;;7.20;2.30;;;14.70;99.90;;;;;;4993129;28;20389;-82
2021/09/30 09:33:09;;;;;;;5.55;1.75;;;15.00;99.90;;;;;;4988591;28;20403;-79
2021/09/30 09:36:11;;;;;;;5.72;1.73;;;15.30;99.90;;;;;;4993294;28;20396;-86
2021/09/30 09:38:43;;;;;;;5.55;1.77;;;15.60;99.90;;;;;;4993165;28;21144;-82
2021/09/30 09:41:12;;;;;;;7.88;2.30;;;15.80;99.90;;;;;;4992505;28;20471;-82
2021/09/30 09:43:44;;;;;;;4.53;1.77;;;15.90;99.90;;;;;;4992156;28;20475;-85
2021/09/30 09:46:12;;;;;;;5.28;1.98;;;16.20;99.90;;;;;;4988634;28;20413;-81
2021/09/30 09:48:38;;;;;;;9.13;2.50;;;16.40;99.90;;;;;;4990805;28;20436;-79
2021/09/30 09:51:13;;;;;;;4.95;2.25;;;16.30;99.90;;;;;;4991967;28;20384;-82
2021/09/30 09:53:39;;;;;;;4.95;1.98;;;16.20;99.90;;;;;;4991899;28;20471;-86
2021/09/30 09:56:10;;;;;;;5.63;2.50;;;16.20;99.90;;;;;;4991927;28;20439;-79
2021/09/30 09:58:44;;;;;;;7.97;1.80;;;16.10;99.90;;;;;;4991769;28;20886;-81
2021/09/30 10:01:09;;;;;;;6.07;2.00;;;16.20;99.90;;;;;;4992373;28;20385;-79
2021/09/30 10:03:35;;;;;;;8.20;2.33;;;16.40;99.90;;;;;;4992667;28;20395;-84
2021/09/30 10:06:04;;;;;;;6.23;1.90;;;16.80;99.90;;;;;;4991070;28;20472;-81
2021/09/30 10:08:31;;;;;;;8.48;1.90;;;17.00;99.90;;;;;;4991866;28;20412;-83
2021/09/30 10:10:57;;;;;;;5.60;1.75;;;17.30;99.90;;;;;;4990465;28;20415;-83
2021/09/30 10:13:25;;;;;;;6.35;1.90;;;17.30;99.90;;;;;;4991363;28;20439;-82
2021/09/30 10:15:54;;;;;;;6.55;2.03;;;17.30;99.90;;;;;;4991933;28;20396;-82
2021/09/30 10:18:25;;;;;;;4.63;2.23;;;17.40;99.90;;;;;;4991025;28;20405;-81
2021/09/30 10:20:51;;;;;;;5.95;1.90;;;17.50;99.90;;;;;;4973360;28;20384;-81
2021/09/30 10:23:24;;;;;;;4.13;1.63;;;17.50;99.90;;;;;;4991524;28;20377;-79
2021/09/30 10:25:54;;;;;;;6.75;2.05;;;17.60;99.90;;;;;;4973906;28;20471;-80
2021/09/30 10:28:20;;;;;;;9.57;2.10;;;17.90;99.90;;;;;;4986495;28;20475;-84
2021/09/30 10:30:51;;;;;;;6.00;1.80;;;17.90;99.90;;;;;;4992308;28;20405;-89
2021/09/30 10:33:20;;;;;;;7.17;1.80;;;17.80;99.90;;;;;;4991696;28;20458;-83
2021/09/30 10:35:50;;;;;;;8.88;1.98;;;17.50;99.90;;;;;;4992004;28;20397;-81
2021/09/30 10:38:18;;;;;;;6.07;1.90;;;17.60;99.90;;;;;;4974450;28;20524;-82
2021/09/30 10:41:13;;;;;;;6.75;1.85;;;17.50;99.90;;;;;;4990349;28;20428;-81
2021/09/30 10:43:41;;;;;;;4.38;1.60;;;17.40;99.90;;;;;;4975203;28;20466;-83
2021/09/30 10:46:30;;;;;;;7.25;1.63;;;17.40;99.90;;;;;;4991613;28;20472;-80
2021/09/30 10:48:56;;;;;;;8.52;2.05;;;17.50;99.90;;;;;;4986842;28;20412;-81
2021/09/30 10:51:23;;;;;;;6.10;1.52;;;17.40;99.90;;;;;;4973984;28;20412;-85
2021/09/30 10:53:48;;;;;;;4.93;1.50;;;17.40;99.90;;;;;;4991513;28;20882;-84
2021/09/30 10:56:53;;;;;;;5.70;1.50;;;17.40;99.90;;;;;;4991131;28;20381;-84
2021/09/30 10:59:19;;;;;;;5.15;1.70;;;17.10;99.90;;;;;;4985877;28;20461;-83
2021/09/30 11:01:47;;;;;;;5.68;1.65;;;17.00;99.90;;;;;;4987620;28;20456;-81
2021/09/30 11:04:15;;;;;;;7.57;1.45;;;16.90;99.90;;;;;;4991454;28;20990;-84
2021/09/30 11:06:42;;;;;;;5.55;1.60;;;16.80;99.90;;;;;;4973076;28;20389;-83
2021/09/30 11:09:21;;;;;;;6.65;1.90;;;16.80;99.90;;;;;;4983234;28;20835;-85
2021/09/30 11:11:59;;;;;;;6.97;1.60;;;16.90;99.90;;;;;;4985212;28;20475;-83
2021/09/30 11:14:25;;;;;;;6.43;1.58;;;16.90;99.90;;;;;;4985941;28;20381;-82
2021/09/30 11:16:54;;;;;;;5.60;1.60;;;17.00;99.90;;;;;;4994618;28;20804;-84
2021/09/30 11:19:25;;;;;;;6.85;1.83;;;16.70;99.90;;;;;;4987785;28;20385;-81
2021/09/30 11:21:52;;;;;;;3.67;1.60;;;16.60;99.90;;;;;;4987785;28;21053;-78
2021/09/30 11:24:22;;;;;;;9.13;2.03;;;16.50;99.90;;;;;;4989924;28;20484;-77
2021/09/30 11:26:53;;;;;;;7.22;1.92;;;16.40;99.90;;;;;;4988725;28;20508;-81
2021/09/30 11:29:22;;;;;;;8.52;1.80;;;16.30;99.90;;;;;;4993153;28;20612;-82
2021/09/30 11:31:47;;;;;;;6.18;2.05;;;16.20;99.90;;;;;;5012166;28;20382;-81
2021/09/30 11:34:22;;;;;;;8.50;1.98;;;16.10;99.90;;;;;;4990553;28;20389;-82
2021/09/30 11:36:48;;;;;;;7.68;2.00;;;16.00;99.90;;;;;;5009681;28;20462;-84
2021/09/30 11:39:14;;;;;;;6.38;1.80;;;15.80;99.90;;;;;;4996773;28;20439;-84
2021/09/30 11:41:43;;;;;;;10.73;2.10;;;15.80;99.90;;;;;;4990326;28;20434;-85
2021/09/30 11:44:17;;;;;;;5.07;1.85;;;15.90;99.90;;;;;;4988678;28;20389;-84
2021/09/30 11:46:43;;;;;;;8.25;2.33;;;15.90;99.90;;;;;;4990085;28;20389;-84
2021/09/30 11:49:13;;;;;;;8.13;2.35;;;15.90;99.90;;;;;;4990485;28;20401;-81
2021/09/30 11:51:43;;;;;;;6.15;1.83;;;16.00;99.90;;;;;;5009916;28;20467;-79
2021/09/30 11:54:14;;;;;;;6.00;1.95;;;16.00;99.90;;;;;;5009670;28;20381;-83
2021/09/30 11:56:42;;;;;;;7.67;1.80;;;16.00;99.90;;;;;;5007442;28;20383;-83
2021/09/30 11:59:08;;;;;;;6.72;2.10;;;16.10;99.90;;;;;;5009097;28;20382;-80
2021/09/30 12:01:46;;;;;;;9.67;2.20;;;16.30;99.90;;;;;;5003788;28;20472;-83
2021/09/30 12:04:14;;;;;;;7.72;1.80;;;16.50;99.90;;;;;;4967159;28;20407;-81
2021/09/30 12:06:41;;;;;;;7.10;1.70;;;16.60;99.90;;;;;;4989423;28;20401;-78
2021/09/30 12:09:08;;;;;;;7.15;1.67;;;16.70;99.90;;;;;;4989138;28;20524;-79
2021/09/30 12:11:36;;;;;;;9.70;2.22;;;16.80;99.90;;;;;;4989042;28;21011;-79
2021/09/30 12:14:05;;;;;;;7.35;1.85;;;16.80;99.90;;;;;;4988987;28;20420;-80
2021/09/30 12:16:32;;;;;;;8.45;1.85;;;16.80;99.90;;;;;;4988397;28;20393;-82
2021/09/30 12:19:02;;;;;;;5.00;1.60;;;17.00;99.90;;;;;;4985916;28;20395;-82
2021/09/30 12:21:39;;;;;;;5.70;1.92;;;17.10;99.90;;;;;;4986421;28;20388;-80
2021/09/30 12:24:08;;;;;;;10.88;2.00;;;17.00;99.90;;;;;;4988914;28;20403;-83
2021/09/30 12:26:37;;;;;;;9.18;1.80;;;17.00;99.90;;;;;;4988482;28;20784;-80
2021/09/30 12:29:05;;;;;;;5.13;1.63;;;16.90;99.90;;;;;;4987279;28;20416;-81
2021/09/30 12:31:31;;;;;;;11.45;2.28;;;16.60;99.90;;;;;;4986156;28;20385;-82
2021/09/30 12:33:57;;;;;;;6.40;1.80;;;16.50;99.90;;;;;;4985763;28;20782;-81
2021/09/30 12:36:23;;;;;;;9.45;1.75;;;16.50;99.90;;;;;;4984586;28;20852;-83
2021/09/30 12:39:00;;;;;;;7.53;2.15;;;16.60;99.90;;;;;;4988678;28;20392;-81
2021/09/30 12:41:27;;;;;;;12.27;2.28;;;16.60;99.90;;;;;;4989183;28;20381;-83
2021/09/30 12:43:54;;;;;;;6.53;1.90;;;16.60;99.90;;;;;;4989923;28;20417;-81
2021/09/30 12:46:19;;;;;;;5.65;1.50;;;16.60;99.90;;;;;;4989606;28;20385;-80
2021/09/30 12:48:49;;;;;;;5.32;1.70;;;17.10;99.90;;;;;;4971730;28;20420;-84
2021/09/30 12:51:22;;;;;;;8.13;2.10;;;17.30;99.90;;;;;;4972463;28;20484;-81
2021/09/30 12:53:53;;;;;;;8.82;1.88;;;17.70;99.90;;;;;;4989853;28;20384;-79
2021/09/30 12:56:27;;;;;;;9.98;1.77;;;17.60;99.90;;;;;;4972852;28;20877;-78
2021/09/30 12:58:53;;;;;;;7.25;1.85;;;17.70;99.90;;;;;;4989560;28;20515;-78
2021/09/30 13:01:27;;;;;;;7.88;1.95;;;17.60;99.90;;;;;;4989822;28;20472;-82
2021/09/30 13:04:02;;;;;;;5.22;1.60;;;17.60;99.90;;;;;;4989442;28;20451;-82
2021/09/30 13:06:28;;;;;;;8.75;1.75;;;17.50;99.90;;;;;;4989868;28;20468;-84
2021/09/30 13:08:53;;;;;;;6.67;2.03;;;17.40;99.90;;;;;;4971825;28;20507;-81
2021/09/30 13:11:30;;;;;;;5.05;1.85;;;17.40;99.90;;;;;;4989466;28;20381;-84
2021/09/30 13:14:14;;;;;;;5.85;2.13;;;17.40;99.90;;;;;;4989378;28;20390;-83
2021/09/30 13:16:41;;;;;;;8.38;2.15;;;17.30;99.90;;;;;;4989363;28;20411;-78
2021/09/30 13:19:07;;;;;;;5.75;1.52;;;17.20;99.90;;;;;;4989884;28;20404;-81
2021/09/30 13:22:03;;;;;;;6.73;1.90;;;17.20;99.90;;;;;;4971965;28;20381;-85
2021/09/30 13:24:30;;;;;;;6.53;1.60;;;17.10;99.90;;;;;;4989520;28;20469;-81
2021/09/30 13:26:55;;;;;;;8.85;2.25;;;17.00;99.90;;;;;;4972927;28;20767;-82
2021/09/30 13:29:22;;;;;;;6.90;2.13;;;16.90;99.90;;;;;;4992898;28;20396;-82
2021/09/30 13:31:48;;;;;;;5.53;1.83;;;16.90;99.90;;;;;;4989565;28;20394;-83
2021/09/30 13:34:13;;;;;;;8.02;2.05;;;16.90;99.90;;;;;;4975990;28;20447;-79
2021/09/30 13:36:39;;;;;;;7.10;2.05;;;16.90;99.90;;;;;;4992986;28;20381;-79
2021/09/30 13:39:06;;;;;;;4.23;1.80;;;16.70;99.90;;;;;;4992889;28;20882;-82
2021/09/30 13:41:31;;;;;;;6.32;1.90;;;16.80;99.90;;;;;;4993550;28;20423;-80
2021/09/30 13:43:57;;;;;;;8.63;1.93;;;16.70;99.90;;;;;;4993416;28;20432;-83
2021/09/30 13:46:22;;;;;;;4.78;1.58;;;16.60;99.90;;;;;;4993742;28;21090;-80
2021/09/30 13:48:48;;;;;;;7.23;2.23;;;16.50;99.90;;;;;;4992899;28;20419;-81
2021/09/30 13:51:13;;;;;;;10.48;2.10;;;16.40;99.90;;;;;;4989328;28;20488;-84
2021/09/30 13:53:40;;;;;;;5.67;2.10;;;16.30;99.90;;;;;;4994527;28;20751;-82
2021/09/30 13:56:07;;;;;;;6.13;1.90;;;16.30;99.90;;;;;;4990112;28;20380;-82
2021/09/30 13:58:35;;;;;;;6.75;1.77;;;16.40;99.90;;;;;;4988049;28;20535;-79
2021/09/30 14:01:01;;;;;;;5.35;1.77;;;16.50;99.90;;;;;;4992882;28;20441;-77
2021/09/30 14:03:26;;;;;;;10.60;2.13;;;16.60;99.90;;;;;;4991389;28;20405;-85
2021/09/30 14:05:52;;;;;;;4.32;1.70;;;16.70;99.90;;;;;;4991494;28;20389;-80
2021/09/30 14:08:18;;;;;;;5.67;1.50;;;16.60;99.90;;;;;;4992686;28;20468;-83
2021/09/30 14:10:45;;;;;;;4.80;1.70;;;16.60;99.90;;;;;;4991903;28;20385;-81
2021/09/30 14:13:11;;;;;;;8.73;1.63;;;16.50;99.90;;;;;;4992829;28;20384;-79
2021/09/30 14:15:37;;;;;;;12.13;2.42;;;16.40;99.90;;;;;;4993469;28;20432;-83
2021/09/30 14:18:03;;;;;;;6.90;1.90;;;16.50;99.90;;;;;;4991724;28;20504;-80
2021/09/30 14:20:28;;;;;;;2.77;1.60;;;16.30;99.90;;;;;;4993272;28;20439;-79
2021/09/30 14:22:54;;;;;;;6.97;1.92;;;16.10;99.90;;;;;;4975530;28;20411;-80
2021/09/30 14:25:19;;;;;;;5.93;1.57;;;16.20;99.90;;;;;;4992735;28;20451;-79
2021/09/30 14:27:45;;;;;;;7.53;1.80;;;16.20;99.90;;;;;;4992160;28;20425;-82
2021/09/30 14:30:11;;;;;;;5.83;1.70;;;16.00;99.90;;;;;;4991889;28;20791;-84
2021/09/30 14:32:37;;;;;;;5.47;2.25;;;15.80;99.90;;;;;;4992019;28;20431;-80
2021/09/30 14:35:04;;;;;;;7.33;2.03;;;15.70;99.90;;;;;;4991675;28;20385;-81
2021/09/30 14:37:29;;;;;;;9.02;2.70;;;15.60;99.90;;;;;;4992180;28;20471;-80
2021/09/30 14:39:55;;;;;;;6.27;1.90;;;15.40;99.90;;;;;;4992532;28;20537;-80
2021/09/30 14:42:20;;;;;;;5.00;1.80;;;15.40;99.90;;;;;;4993047;28;20871;-81
2021/09/30 14:44:47;;;;;;;5.70;1.95;;;15.30;99.90;;;;;;4992381;28;20381;-80
2021/09/30 14:47:13;;;;;;;8.05;2.00;;;15.40;99.90;;;;;;4974946;28;20389;-79
2021/09/30 14:49:39;;;;;;;8.40;2.35;;;15.30;99.90;;;;;;4992097;28;20391;-81
2021/09/30 14:52:10;;;;;;;5.63;1.65;;;15.40;99.90;;;;;;4992546;28;20416;-84
2021/09/30 14:54:36;;;;;;;5.80;1.90;;;15.40;99.90;;;;;;4991152;28;20450;-81
2021/09/30 14:57:03;;;;;;;5.38;2.05;;;15.30;99.90;;;;;;4991926;28;20373;-82
2021/09/30 14:59:28;;;;;;;4.88;1.85;;;15.30;99.90;;;;;;4992899;28;20510;-78
2021/09/30 15:01:54;;;;;;;6.40;1.98;;;15.30;99.90;;;;;;4990993;28;20423;-82
2021/09/30 15:04:19;;;;;;;4.83;1.73;;;15.30;99.90;;;;;;4992416;28;20397;-83
2021/09/30 15:06:45;;;;;;;6.43;1.93;;;15.20;99.90;;;;;;4991534;28;20531;-80
2021/09/30 15:09:11;;;;;;;7.60;2.03;;;15.20;99.90;;;;;;4991877;28;20551;-82
2021/09/30 15:11:38;;;;;;;4.93;1.63;;;15.20;99.90;;;;;;4992671;28;20385;-80
2021/09/30 15:14:05;;;;;;;10.60;2.10;;;15.20;99.90;;;;;;4991200;28;20385;-84
2021/09/30 15:16:33;;;;;;;6.07;1.80;;;15.10;99.90;;;;;;4991829;28;20400;-80
2021/09/30 15:19:15;;;;;;;8.10;2.23;;;14.90;99.90;;;;;;4974910;28;20392;-80
2021/09/30 15:21:41;;;;;;;5.68;1.98;;;15.00;99.90;;;;;;4990126;28;20795;-79
2021/09/30 15:24:07;;;;;;;6.90;1.87;;;14.90;99.90;;;;;;4991570;28;20389;-83
2021/09/30 15:26:34;;;;;;;7.67;2.03;;;14.80;99.90;;;;;;4991467;28;20879;-81
2021/09/30 15:29:00;;;;;;;7.60;2.25;;;14.70;99.90;;;;;;4990694;28;20420;-80
2021/09/30 15:31:28;;;;;;;9.10;2.35;;;14.70;99.90;;;;;;4991386;28;20377;-80
2021/09/30 15:33:55;;;;;;;6.05;1.73;;;14.80;99.90;;;;;;4989892;28;20519;-82
2021/09/30 15:36:25;;;;;;;7.28;1.90;;;14.80;99.90;;;;;;4982833;28;20858;-80
2021/09/30 15:38:54;;;;;;;11.32;2.33;;;14.80;99.90;;;;;;4977325;28;20477;-82
2021/09/30 15:41:22;;;;;;;5.60;1.60;;;14.60;99.90;;;;;;4980259;28;20447;-81
2021/09/30 15:43:48;;;;;;;5.63;1.80;;;14.60;99.90;;;;;;4981135;28;20387;-81
2021/09/30 15:46:14;;;;;;;5.53;1.73;;;14.50;99.90;;;;;;4960390;28;20381;-81
2021/09/30 15:48:42;;;;;;;4.88;2.10;;;14.50;99.90;;;;;;4984126;28;20482;-81
2021/09/30 15:51:08;;;;;;;6.50;1.97;;;14.50;99.90;;;;;;4962022;28;20868;-79
2021/09/30 15:53:34;;;;;;;7.93;2.10;;;14.20;99.90;;;;;;4960119;28;20395;-79